Descanso, CA (91916)

4:38 PM PST on January 24, 2017 (GMT -0800)
Townhall area | | Change Station

Elev 3491 ft 32.85 °N, 116.62 °W | Updated 13 seconds ago

Overcast
Overcast
37.9 °F
Feels Like 38 °F
N
0.2
Wind Variable Wind from NNW
Gusts 2.5 mph

Today
High -- | Low -- °F
--% Chance of Precip.
Yesterday
High -- | Low -- °F
Precip. -- in
Pressure 29.96 in
Visibility -9999.0 miles
Clouds
Windchill 38 °F
Dew Point 36 °F
Humidity 93%
Rainfall 0.46 in
Snow Depth Not available.
6:45 AM 5:11 PM
Waning Crescent, 9% visible
METAR KCZZ 242352Z AUTO 27005KT 04/03 A2997 RMK AO1 SLP144 P0002 60009 T00440028 10067 20028 53003
Pressure 29.96 in
Visibility -9999.0 miles
Clouds
Windchill 38 °F
Dew Point 36 °F
Humidity 93%
Rainfall 0.46 in
Snow Depth Not available.
6:45 AM 5:11 PM
Waning Crescent, 9% visible
METAR KCZZ 242352Z AUTO 27005KT 04/03 A2997 RMK AO1 SLP144 P0002 60009 T00440028 10067 20028 53003

Get Your Daily Forecast Email!

Thanks for signing up!

Be on the lookout for a verification email in your inbox.

You'll start receiving the daily forecast at 8 AM.

×

10-Day Weather Forecast

Almanac

Astronomy

Jan. 24, 2017 Rise Set
Actual Time
Civil Twilight
Nautical Twilight
Astronomical Twilight
Moon
Length of Visible Light
Length of Day
Tomorrow will be .
, % of the Moon is Illuminated

Today's Extremes

State Highs State Lows

Community

WunderPhotos

Upload Photos

1,962,540 photos uploaded!

WunderBlog® & News

Nearby

Air Quality

  Air Quality AQ Index Pollutant
Not available.

Snow Depth

Station Depth Elevation

Earthquake Activity

City Distance Mag. Time & Date
Minimum magnitude displayed is 2.5.

Coastal Water Temperatures

Place Temperature

Stations

Nearby Weather Stations

Station Location Temp. Windchill Dew Point Humidity Wind Precip. Elev Updated Type
                   

Watches & Warnings

There are currently no watches in effect.